Rusty Hill — WDA6027 — position and weather

sailwx.info

Track history (hours):
 
Tides and Currents Weather Stations Pressure Air Temp Water Temp Dewpoint Dewpoint Depression Visibility Wind Speed Wind Dir Waves Ship Positions

Rusty Hill

Owner: Blessey Enterprises, Inc., HARAHAN, LA. More information available from US FCC via Universal Licensing System.

Last reported at 2017-Sep-26 22:00 UTC. Time now 2017-Sep-26 22:06 UTC.
Position N 29°42' W 094°59'.

Length 43 m; draft 2.6 m.

Type: Tug. MMSI: 366826930.

Date/timePositionNaut miles runAvg speedWind from/ knotsBaromVisibWave heightAir tempDewpointWater temp
2017-Sep-26 22:00N 29°42' W 094°59'3 6.2
2017-Sep-26 21:30N 29°39' W 094°58'3 6.8
2017-Sep-26 21:00N 29°36' W 094°57'4 6.9
2017-Sep-26 20:30N 29°33' W 094°54'1 0.0
2017-Sep-25 13:53N 29°32' W 094°54'3 6.6
2017-Sep-25 13:30N 29°34' W 094°55'3 6.6
2017-Sep-25 13:00N 29°37' W 094°57'3 6.9
2017-Sep-25 12:30N 29°40' W 094°59'3 6.7
2017-Sep-25 12:00N 29°42' W 095°01'2 0.1
2017-Sep-24 05:55N 29°44' W 095°03'3 5.5
2017-Sep-24 05:28N 29°42' W 095°01'3 6.3
2017-Sep-24 05:00N 29°40' W 094°59'3 6.7
2017-Sep-24 04:30N 29°37' W 094°57'3 6.6
2017-Sep-24 04:00N 29°34' W 094°55'  
2017-Sep-21 15:22N 29°46' W 095°05'3 0.1
2017-Sep-20 06:39N 29°44' W 095°03'0 0.0
2017-Sep-20 05:51N 29°44' W 095°03'0 0.2
2017-Sep-20 05:27N 29°44' W 095°03'0 0.5
2017-Sep-20 05:00N 29°44' W 095°03'0 0.0
2017-Sep-20 04:30N 29°44' W 095°03'0 0.0
2017-Sep-20 03:55N 29°44' W 095°03'0 0.0
2017-Sep-20 03:30N 29°44' W 095°03'0 0.0
2017-Sep-20 03:00N 29°44' W 095°03'0 0.0
2017-Sep-20 02:30N 29°44' W 095°03'0 0.0
2017-Sep-20 02:00N 29°44' W 095°03'2 4.2
2017-Sep-20 01:26N 29°46' W 095°05'4 6.2
2017-Sep-20 00:50N 29°44' W 095°09'5 0.2
2017-Sep-19 04:58N 29°47' W 095°05'0 0.0
2017-Sep-19 04:30N 29°47' W 095°05'0 0.0
2017-Sep-19 03:33N 29°47' W 095°05'0 0.0
2017-Sep-19 03:21N 29°47' W 095°05'0 0.0
2017-Sep-18 19:18N 29°47' W 095°05'3 0.7
2017-Sep-18 14:33N 29°44' W 095°03'1 5.4
2017-Sep-18 14:17N 29°44' W 095°02'2 6.6
2017-Sep-18 14:00N 29°42' W 095°01'4 7.0
2017-Sep-18 13:29N 29°39' W 094°58'4 7.6
2017-Sep-18 13:00N 29°36' W 094°57'4 7.6
2017-Sep-18 12:30N 29°33' W 094°54'1 0.0
2017-Sep-17 07:08N 29°32' W 094°54'1 6.2
2017-Sep-17 07:00N 29°32' W 094°54'3 6.2
2017-Sep-17 06:30N 29°35' W 094°56'3 5.8
2017-Sep-17 06:00N 29°37' W 094°58'4 7.4
2017-Sep-17 05:30N 29°41' W 094°59'4 6.7
2017-Sep-17 04:56N 29°44' W 095°02'5 2.3
2017-Sep-17 02:41N 29°44' W 095°08'0 0.0
2017-Sep-17 02:16N 29°44' W 095°08'0 0.0
2017-Sep-17 01:33N 29°44' W 095°08'0 0.0
2017-Sep-17 01:17N 29°44' W 095°08'0 0.0
2017-Sep-17 00:10N 29°44' W 095°08'0 0.0
2017-Sep-16 23:57N 29°44' W 095°08'0 0.0
2017-Sep-16 23:30N 29°44' W 095°08'  
Track history (hours):
 
Tides and Currents Weather Stations Pressure Air Temp Water Temp Dewpoint Dewpoint Depression Visibility Wind Speed Wind Dir Waves Ship Positions

Rusty Hill

Owner: Blessey Enterprises, Inc., HARAHAN, LA. More information available from US FCC via Universal Licensing System.

Last reported at 2017-Sep-26 22:00 UTC. Time now 2017-Sep-26 22:06 UTC.
Position N 29°42' W 094°59'.

Length 43 m; draft 2.6 m.

Type: Tug. MMSI: 366826930.

Date/timePositionNaut miles runAvg speedWind from/ knotsBaromVisibWave heightAir tempDewpointWater temp
2017-Sep-26 22:00N 29°42' W 094°59'3 6.2
2017-Sep-26 21:30N 29°39' W 094°58'3 6.8
2017-Sep-26 21:00N 29°36' W 094°57'4 6.9
2017-Sep-26 20:30N 29°33' W 094°54'1 0.0
2017-Sep-25 13:53N 29°32' W 094°54'3 6.6
2017-Sep-25 13:30N 29°34' W 094°55'3 6.6
2017-Sep-25 13:00N 29°37' W 094°57'3 6.9
2017-Sep-25 12:30N 29°40' W 094°59'3 6.7
2017-Sep-25 12:00N 29°42' W 095°01'2 0.1
2017-Sep-24 05:55N 29°44' W 095°03'3 5.5
2017-Sep-24 05:28N 29°42' W 095°01'3 6.3
2017-Sep-24 05:00N 29°40' W 094°59'3 6.7
2017-Sep-24 04:30N 29°37' W 094°57'3 6.6
2017-Sep-24 04:00N 29°34' W 094°55'  
2017-Sep-21 15:22N 29°46' W 095°05'3 0.1
2017-Sep-20 06:39N 29°44' W 095°03'0 0.0
2017-Sep-20 05:51N 29°44' W 095°03'0 0.2
2017-Sep-20 05:27N 29°44' W 095°03'0 0.5
2017-Sep-20 05:00N 29°44' W 095°03'0 0.0
2017-Sep-20 04:30N 29°44' W 095°03'0 0.0
2017-Sep-20 03:55N 29°44' W 095°03'0 0.0
2017-Sep-20 03:30N 29°44' W 095°03'0 0.0
2017-Sep-20 03:00N 29°44' W 095°03'0 0.0
2017-Sep-20 02:30N 29°44' W 095°03'0 0.0
2017-Sep-20 02:00N 29°44' W 095°03'2 4.2
2017-Sep-20 01:26N 29°46' W 095°05'4 6.2
2017-Sep-20 00:50N 29°44' W 095°09'5 0.2
2017-Sep-19 04:58N 29°47' W 095°05'0 0.0
2017-Sep-19 04:30N 29°47' W 095°05'0 0.0
2017-Sep-19 03:33N 29°47' W 095°05'0 0.0
2017-Sep-19 03:21N 29°47' W 095°05'0 0.0
2017-Sep-18 19:18N 29°47' W 095°05'3 0.7
2017-Sep-18 14:33N 29°44' W 095°03'1 5.4
2017-Sep-18 14:17N 29°44' W 095°02'2 6.6
2017-Sep-18 14:00N 29°42' W 095°01'4 7.0
2017-Sep-18 13:29N 29°39' W 094°58'4 7.6
2017-Sep-18 13:00N 29°36' W 094°57'4 7.6
2017-Sep-18 12:30N 29°33' W 094°54'1 0.0
2017-Sep-17 07:08N 29°32' W 094°54'1 6.2
2017-Sep-17 07:00N 29°32' W 094°54'3 6.2
2017-Sep-17 06:30N 29°35' W 094°56'3 5.8
2017-Sep-17 06:00N 29°37' W 094°58'4 7.4
2017-Sep-17 05:30N 29°41' W 094°59'4 6.7
2017-Sep-17 04:56N 29°44' W 095°02'5 2.3
2017-Sep-17 02:41N 29°44' W 095°08'0 0.0
2017-Sep-17 02:16N 29°44' W 095°08'0 0.0
2017-Sep-17 01:33N 29°44' W 095°08'0 0.0
2017-Sep-17 01:17N 29°44' W 095°08'0 0.0
2017-Sep-17 00:10N 29°44' W 095°08'0 0.0
2017-Sep-16 23:57N 29°44' W 095°08'0 0.0
2017-Sep-16 23:30N 29°44' W 095°08'  

Dump ship's entire track history